createdAt,value
2023-07-15T00:00:27.778Z,19.58
2023-07-15T00:01:38.672Z,19.53
2023-07-15T00:02:20.633Z,19.52
2023-07-15T00:03:02.493Z,19.41
2023-07-15T00:03:44.223Z,19.54
2023-07-15T00:04:26.722Z,19.53
2023-07-15T00:05:18.589Z,19.48
2023-07-15T00:06:00.398Z,19.40
2023-07-15T00:06:42.221Z,19.35
2023-07-15T00:07:23.893Z,19.36
2023-07-15T00:08:07.306Z,19.29
2023-07-15T00:08:49.661Z,19.28
2023-07-15T00:09:31.371Z,19.26
2023-07-15T00:10:13.174Z,19.19
2023-07-15T00:10:55.514Z,19.32
2023-07-15T00:11:43.003Z,19.24
2023-07-15T00:12:24.847Z,19.18
2023-07-15T00:13:11.791Z,19.24
2023-07-15T00:13:53.924Z,19.41
2023-07-15T00:14:35.721Z,19.29
2023-07-15T00:15:18.813Z,19.37
2023-07-15T00:16:00.738Z,19.35
2023-07-15T00:16:42.981Z,19.25
2023-07-15T00:17:24.990Z,19.31
2023-07-15T00:18:06.897Z,19.24
2023-07-15T00:18:48.976Z,19.24
2023-07-15T00:19:30.884Z,19.29
2023-07-15T00:20:15.905Z,19.10
2023-07-15T00:20:57.806Z,19.31
2023-07-15T00:21:39.643Z,19.18
2023-07-15T00:22:22.142Z,19.26
2023-07-15T00:23:24.904Z,19.35
2023-07-15T00:24:08.565Z,19.42
2023-07-15T00:24:50.204Z,19.41
2023-07-15T00:25:32.244Z,19.41
2023-07-15T00:26:14.104Z,19.42
2023-07-15T00:26:59.814Z,19.45
2023-07-15T00:27:43.661Z,19.25
2023-07-15T00:28:26.515Z,19.43
2023-07-15T00:29:08.657Z,19.18
2023-07-15T00:29:50.315Z,19.15
2023-07-15T00:30:32.627Z,19.20
2023-07-15T00:31:16.124Z,19.28
2023-07-15T00:31:58.353Z,19.17
2023-07-15T00:32:40.317Z,19.20
2023-07-15T00:33:24.276Z,19.25
2023-07-15T00:34:06.445Z,19.15
2023-07-15T00:34:48.187Z,19.19
2023-07-15T00:35:33.655Z,19.17
2023-07-15T00:36:16.774Z,19.10
2023-07-15T00:36:58.578Z,19.01
2023-07-15T00:37:40.372Z,19.05
2023-07-15T00:38:22.040Z,19.18
2023-07-15T00:39:06.072Z,19.05
2023-07-15T00:39:47.888Z,19.04
2023-07-15T00:40:35.131Z,18.98
2023-07-15T00:41:30.200Z,19.04
2023-07-15T00:42:40.876Z,18.98
2023-07-15T00:43:57.415Z,18.96
2023-07-15T00:44:38.958Z,19.02
2023-07-15T00:45:20.600Z,19.05
2023-07-15T00:46:20.949Z,19.01
2023-07-15T00:47:23.039Z,18.97
2023-07-15T00:48:27.779Z,18.77
2023-07-15T00:49:21.274Z,18.92
2023-07-15T00:50:04.064Z,18.72
2023-07-15T00:50:45.787Z,19.00
2023-07-15T00:51:29.251Z,19.01
2023-07-15T00:52:17.200Z,18.97
2023-07-15T00:52:59.611Z,18.77
2023-07-15T00:53:41.399Z,18.85
2023-07-15T00:54:23.628Z,18.84
2023-07-15T00:55:06.438Z,18.79
2023-07-15T00:55:48.281Z,18.81
2023-07-15T00:56:32.010Z,18.69
2023-07-15T00:57:16.745Z,18.67
2023-07-15T00:57:58.873Z,18.48
2023-07-15T00:58:40.643Z,18.41
2023-07-15T00:59:22.542Z,18.56
2023-07-15T01:00:06.317Z,18.56
2023-07-15T01:00:48.098Z,18.69
2023-07-15T01:01:30.464Z,18.63
2023-07-15T01:02:14.119Z,18.74
2023-07-15T01:02:55.969Z,18.74
2023-07-15T01:03:46.084Z,18.75
2023-07-15T01:04:28.297Z,18.76
2023-07-15T01:05:11.646Z,18.69
2023-07-15T01:05:53.415Z,18.76
2023-07-15T01:06:36.431Z,18.79
2023-07-15T01:07:18.496Z,18.80
2023-07-15T01:08:00.276Z,18.70
2023-07-15T01:08:42.157Z,18.81
2023-07-15T01:09:25.632Z,18.71
2023-07-15T01:10:07.766Z,18.67
2023-07-15T01:10:50.056Z,18.61
2023-07-15T01:11:33.861Z,18.49
2023-07-15T01:12:15.780Z,18.41
2023-07-15T01:12:57.537Z,18.19
2023-07-15T01:13:39.340Z,18.20
2023-07-15T01:14:21.284Z,18.20
2023-07-15T01:15:03.402Z,18.20
2023-07-15T01:15:45.452Z,18.11
2023-07-15T01:16:29.608Z,18.21
2023-07-15T01:17:11.474Z,18.21
2023-07-15T01:17:53.632Z,18.27
2023-07-15T01:18:37.123Z,18.18
2023-07-15T01:19:19.823Z,18.15
2023-07-15T01:20:01.889Z,18.21
2023-07-15T01:20:43.630Z,18.24
2023-07-15T01:21:32.468Z,18.28
2023-07-15T01:22:14.342Z,18.31
2023-07-15T01:22:56.166Z,18.19
2023-07-15T01:23:39.233Z,18.21
2023-07-15T01:24:22.635Z,18.42
2023-07-15T01:25:06.955Z,18.46
2023-07-15T01:26:42.416Z,18.47
2023-07-15T01:27:24.196Z,18.33
2023-07-15T01:28:07.556Z,18.33
2023-07-15T01:28:49.300Z,18.21
2023-07-15T01:29:30.992Z,18.18
2023-07-15T01:30:12.739Z,18.23
2023-07-15T01:30:54.441Z,18.35
2023-07-15T01:31:37.497Z,18.31
2023-07-15T01:32:19.248Z,18.35
2023-07-15T01:33:01.008Z,18.27
2023-07-15T01:33:42.849Z,18.33
2023-07-15T01:34:25.736Z,18.21
2023-07-15T01:35:08.492Z,18.21
2023-07-15T01:35:51.109Z,18.23
2023-07-15T01:36:32.716Z,18.36
2023-07-15T01:37:14.435Z,18.38
2023-07-15T01:37:56.101Z,18.41
2023-07-15T01:38:38.694Z,18.43
2023-07-15T01:39:20.404Z,18.35
2023-07-15T01:40:04.524Z,18.13
2023-07-15T01:40:46.181Z,18.44
2023-07-15T01:41:27.893Z,18.38
2023-07-15T01:42:09.520Z,18.21
2023-07-15T01:42:51.286Z,18.53
2023-07-15T01:43:33.306Z,18.47
2023-07-15T01:44:17.429Z,18.54
2023-07-15T01:44:59.149Z,18.45
2023-07-15T01:45:41.201Z,18.61
2023-07-15T01:46:22.965Z,18.57
2023-07-15T01:47:04.934Z,18.49
2023-07-15T01:47:47.694Z,18.41
2023-07-15T01:48:29.659Z,18.51
2023-07-15T01:49:11.373Z,18.45
2023-07-15T01:49:53.083Z,18.39
2023-07-15T01:50:36.912Z,18.30
2023-07-15T01:51:18.625Z,18.07
2023-07-15T01:52:00.417Z,18.18
2023-07-15T01:52:42.163Z,18.02
2023-07-15T01:53:23.817Z,18.10
2023-07-15T01:54:07.088Z,18.19
2023-07-15T01:54:48.836Z,18.22
2023-07-15T01:55:30.650Z,18.27
2023-07-15T01:56:12.661Z,18.17
2023-07-15T01:56:55.544Z,18.29
2023-07-15T01:57:37.288Z,18.20
2023-07-15T01:58:19.083Z,18.34
2023-07-15T01:59:00.849Z,18.22
2023-07-15T01:59:43.028Z,18.38
2023-07-15T02:00:24.804Z,18.36
2023-07-15T02:01:06.486Z,18.33
2023-07-15T02:01:48.474Z,18.27
2023-07-15T02:02:30.485Z,18.28
2023-07-15T02:03:12.336Z,18.17
2023-07-15T02:03:54.202Z,18.22
2023-07-15T02:04:35.934Z,18.17
2023-07-15T02:05:17.705Z,18.14
2023-07-15T02:05:59.504Z,18.09
2023-07-15T02:06:42.864Z,18.03
2023-07-15T02:07:24.589Z,17.98
2023-07-15T02:08:06.488Z,18.01
2023-07-15T02:08:48.366Z,18.02
2023-07-15T02:09:30.761Z,18.03
2023-07-15T02:10:12.546Z,18.02
2023-07-15T02:10:54.205Z,18.04
2023-07-15T02:11:36.022Z,17.99
2023-07-15T02:12:17.854Z,18.00
2023-07-15T02:13:00.968Z,17.97
2023-07-15T02:13:42.678Z,17.82
2023-07-15T02:14:24.486Z,17.99
2023-07-15T02:15:07.315Z,18.03
2023-07-15T02:15:49.421Z,18.03
2023-07-15T02:16:31.278Z,17.91
2023-07-15T02:17:15.083Z,17.94
2023-07-15T02:17:56.782Z,18.07
2023-07-15T02:18:38.557Z,18.10
2023-07-15T02:19:20.326Z,18.00
2023-07-15T02:20:02.330Z,18.04
2023-07-15T02:20:45.505Z,17.88
2023-07-15T02:21:28.198Z,17.91
2023-07-15T02:22:09.830Z,17.76
2023-07-15T02:22:51.516Z,17.82
2023-07-15T02:23:34.571Z,17.79
2023-07-15T02:24:16.408Z,17.72
2023-07-15T02:24:58.063Z,17.82
2023-07-15T02:25:39.816Z,17.80
2023-07-15T02:26:21.600Z,17.64
2023-07-15T02:27:04.497Z,17.82
2023-07-15T02:27:46.171Z,17.84
2023-07-15T02:28:29.019Z,17.87
2023-07-15T02:29:10.863Z,17.79
2023-07-15T02:29:53.091Z,17.73
2023-07-15T02:30:35.872Z,17.93
2023-07-15T02:31:17.666Z,17.92
2023-07-15T02:31:59.908Z,18.01
2023-07-15T02:32:43.281Z,18.02
2023-07-15T02:33:25.679Z,17.83
2023-07-15T02:34:08.359Z,17.94
2023-07-15T02:34:50.428Z,17.89
2023-07-15T02:35:32.094Z,17.89
2023-07-15T02:36:15.129Z,17.78
2023-07-15T02:36:57.145Z,17.66
2023-07-15T02:37:40.078Z,17.87
2023-07-15T02:38:21.795Z,17.91
2023-07-15T02:39:07.456Z,17.83
2023-07-15T02:39:49.113Z,17.74
2023-07-15T02:40:30.851Z,17.71
2023-07-15T02:41:13.241Z,17.56
2023-07-15T02:41:55.145Z,17.65
2023-07-15T02:42:37.662Z,17.74
2023-07-15T02:43:20.623Z,17.75
2023-07-15T02:44:03.725Z,17.75
2023-07-15T02:44:45.816Z,17.70
2023-07-15T02:45:28.178Z,17.67
2023-07-15T02:46:09.903Z,17.61
2023-07-15T02:46:52.009Z,17.60
2023-07-15T02:47:34.548Z,17.48
2023-07-15T02:48:17.013Z,17.55
2023-07-15T02:48:58.775Z,17.65
2023-07-15T02:49:40.403Z,17.69
2023-07-15T02:50:22.211Z,17.73
2023-07-15T02:51:04.110Z,17.69
2023-07-15T02:51:46.640Z,17.79
2023-07-15T02:52:28.351Z,17.78
2023-07-15T02:53:10.234Z,17.80
2023-07-15T02:53:52.324Z,17.70
2023-07-15T02:54:34.277Z,17.71
2023-07-15T02:55:16.043Z,17.82
2023-07-15T02:55:58.449Z,17.89
2023-07-15T02:56:40.206Z,17.93
2023-07-15T02:57:21.909Z,17.95
2023-07-15T02:58:04.812Z,17.94
2023-07-15T02:58:46.499Z,17.90
2023-07-15T02:59:28.168Z,17.90
2023-07-15T03:00:14.299Z,17.81
2023-07-15T03:00:55.950Z,17.75
2023-07-15T03:01:37.650Z,17.94
2023-07-15T03:02:19.826Z,17.99
2023-07-15T03:03:01.628Z,17.99
2023-07-15T03:03:43.415Z,17.98
2023-07-15T03:04:25.385Z,17.72
2023-07-15T03:05:07.428Z,17.78
2023-07-15T03:05:50.528Z,17.92
2023-07-15T03:06:34.179Z,17.94
2023-07-15T03:07:16.895Z,17.86
2023-07-15T03:07:58.597Z,17.97
2023-07-15T03:08:40.318Z,17.99
2023-07-15T03:09:22.824Z,17.98
2023-07-15T03:10:04.866Z,17.98
2023-07-15T03:10:46.748Z,17.74
2023-07-15T03:11:28.492Z,17.74
2023-07-15T03:12:13.004Z,17.86
2023-07-15T03:12:54.838Z,17.81
2023-07-15T03:13:36.538Z,17.78
2023-07-15T03:14:18.309Z,17.75
2023-07-15T03:15:00.561Z,17.70
2023-07-15T03:15:43.950Z,17.70
2023-07-15T03:16:25.870Z,17.78
2023-07-15T03:17:07.657Z,17.64
2023-07-15T03:17:49.448Z,17.83
2023-07-15T03:18:31.361Z,17.80
2023-07-15T03:19:13.084Z,17.87
2023-07-15T03:19:54.830Z,17.91
2023-07-15T03:20:36.589Z,17.81
2023-07-15T03:21:18.368Z,17.98
2023-07-15T03:22:00.457Z,17.97
2023-07-15T03:22:43.696Z,18.03
2023-07-15T03:23:25.593Z,18.06
2023-07-15T03:24:07.229Z,17.98
2023-07-15T03:24:48.923Z,18.00
2023-07-15T03:25:30.934Z,18.06
2023-07-15T03:26:14.751Z,18.13
2023-07-15T03:26:56.652Z,17.96
2023-07-15T03:27:38.982Z,18.11
2023-07-15T03:28:20.666Z,18.12
2023-07-15T03:29:06.977Z,18.06
2023-07-15T03:29:50.487Z,17.99
2023-07-15T03:30:32.369Z,18.07
2023-07-15T03:31:14.186Z,18.03
2023-07-15T03:31:55.953Z,17.95
2023-07-15T03:32:38.541Z,18.03
2023-07-15T03:33:20.367Z,18.03
2023-07-15T03:34:02.886Z,18.03
2023-07-15T03:34:48.863Z,18.04
2023-07-15T03:35:30.556Z,17.91
2023-07-15T03:36:13.512Z,18.04
2023-07-15T03:36:56.083Z,17.88
2023-07-15T03:37:42.331Z,17.91
2023-07-15T03:38:24.042Z,17.88
2023-07-15T03:39:06.260Z,17.66
2023-07-15T03:39:48.791Z,17.70
2023-07-15T03:40:32.763Z,17.59
2023-07-15T03:41:14.939Z,17.72
2023-07-15T03:41:56.662Z,17.66
2023-07-15T03:42:39.644Z,17.83
2023-07-15T03:43:21.361Z,17.69
2023-07-15T03:44:03.319Z,17.81
2023-07-15T03:44:45.020Z,17.75
2023-07-15T03:45:26.730Z,17.84
2023-07-15T03:46:08.878Z,17.84
2023-07-15T03:46:56.029Z,17.48
2023-07-15T03:47:39.115Z,17.73
2023-07-15T03:48:21.407Z,17.91
2023-07-15T03:49:03.218Z,17.94
2023-07-15T03:49:44.889Z,17.93
2023-07-15T03:50:26.641Z,18.00
2023-07-15T03:51:08.564Z,18.04
2023-07-15T03:51:50.852Z,17.99
2023-07-15T03:52:32.926Z,18.05
2023-07-15T03:53:14.727Z,18.03
2023-07-15T03:53:56.462Z,17.92
2023-07-15T03:54:38.402Z,18.01
2023-07-15T03:55:20.159Z,18.02
2023-07-15T03:56:02.302Z,17.88
2023-07-15T03:56:44.055Z,17.97
2023-07-15T03:57:26.442Z,18.00
2023-07-15T03:58:09.898Z,18.15
2023-07-15T03:58:51.577Z,18.16
2023-07-15T03:59:33.272Z,18.24
2023-07-15T04:00:18.410Z,18.19
2023-07-15T04:01:00.244Z,18.16
2023-07-15T04:01:42.275Z,18.30
2023-07-15T04:02:23.996Z,18.28
2023-07-15T04:03:05.749Z,18.26
2023-07-15T04:03:47.568Z,18.24
2023-07-15T04:04:29.345Z,18.14
2023-07-15T04:05:11.253Z,18.10
2023-07-15T04:05:52.941Z,18.22
2023-07-15T04:06:35.036Z,18.07
2023-07-15T04:07:17.300Z,18.26
2023-07-15T04:07:58.994Z,18.21
2023-07-15T04:08:40.756Z,18.16
2023-07-15T04:09:23.032Z,18.29
2023-07-15T04:10:05.048Z,18.28
2023-07-15T04:10:50.024Z,18.10
2023-07-15T04:11:33.721Z,18.01
2023-07-15T04:12:15.531Z,17.99
2023-07-15T04:12:57.267Z,17.88
2023-07-15T04:13:38.962Z,17.90
2023-07-15T04:14:20.659Z,17.96
2023-07-15T04:15:02.461Z,17.97
2023-07-15T04:15:44.350Z,17.77
2023-07-15T04:16:26.051Z,18.03
2023-07-15T04:17:07.758Z,18.01
2023-07-15T04:17:49.565Z,18.00
2023-07-15T04:18:32.241Z,18.08
2023-07-15T04:19:14.074Z,18.09
2023-07-15T04:19:55.792Z,18.09
2023-07-15T04:20:37.557Z,18.01
2023-07-15T04:21:19.237Z,18.08
2023-07-15T04:22:00.966Z,18.14
2023-07-15T04:22:42.767Z,18.15
2023-07-15T04:23:24.564Z,18.05
2023-07-15T04:24:06.722Z,18.08
2023-07-15T04:24:48.409Z,18.03
2023-07-15T04:25:30.286Z,18.01
2023-07-15T04:26:13.460Z,17.98
2023-07-15T04:26:55.409Z,17.97
2023-07-15T04:27:38.501Z,17.91
2023-07-15T04:28:20.527Z,18.03
2023-07-15T04:29:03.383Z,18.03
2023-07-15T04:29:46.140Z,18.07
2023-07-15T04:30:27.905Z,18.14
2023-07-15T04:31:09.714Z,18.08
2023-07-15T04:31:51.573Z,18.21
2023-07-15T04:32:33.585Z,18.24
2023-07-15T04:33:16.632Z,18.26
2023-07-15T04:33:58.383Z,18.18
2023-07-15T04:34:40.046Z,18.30
2023-07-15T04:35:21.710Z,18.33
2023-07-15T04:36:03.780Z,18.27
2023-07-15T04:36:45.483Z,18.21
2023-07-15T04:37:27.258Z,18.30
2023-07-15T04:38:11.128Z,18.30
2023-07-15T04:38:52.823Z,18.18
2023-07-15T04:39:34.526Z,18.22
2023-07-15T04:40:16.989Z,18.35
2023-07-15T04:40:58.688Z,18.23
2023-07-15T04:41:40.316Z,18.41
2023-07-15T04:42:21.988Z,18.24
2023-07-15T04:43:03.605Z,18.28
2023-07-15T04:43:45.320Z,18.47
2023-07-15T04:44:26.937Z,18.49
2023-07-15T04:45:08.981Z,18.36
2023-07-15T04:45:51.110Z,18.51
2023-07-15T04:46:33.564Z,18.55
2023-07-15T04:47:15.468Z,18.56
2023-07-15T04:47:57.688Z,18.54
2023-07-15T04:48:40.030Z,18.60
2023-07-15T04:49:21.703Z,18.58
2023-07-15T04:50:03.834Z,18.61
2023-07-15T04:50:46.862Z,18.63
2023-07-15T04:51:28.564Z,18.59
2023-07-15T04:52:10.589Z,18.67
2023-07-15T04:52:52.219Z,18.61
2023-07-15T04:53:34.223Z,18.70
2023-07-15T04:54:16.078Z,18.71
2023-07-15T04:54:57.773Z,18.60
2023-07-15T04:55:42.347Z,18.76
2023-07-15T04:56:24.692Z,18.78
2023-07-15T04:57:06.774Z,18.81
2023-07-15T04:57:48.701Z,18.80
2023-07-15T04:58:30.606Z,18.84
2023-07-15T04:59:12.379Z,18.76
2023-07-15T04:59:54.238Z,18.88
2023-07-15T05:00:37.844Z,18.89
2023-07-15T05:01:19.742Z,18.90
2023-07-15T05:02:01.544Z,18.74
2023-07-15T05:02:43.307Z,18.89
2023-07-15T05:03:25.394Z,18.67
2023-07-15T05:04:07.337Z,18.89
2023-07-15T05:04:48.964Z,18.90
2023-07-15T05:05:30.727Z,18.92
2023-07-15T05:06:12.517Z,18.92
2023-07-15T05:06:54.475Z,18.93
2023-07-15T05:07:51.458Z,18.87
2023-07-15T05:08:38.547Z,18.93
2023-07-15T05:09:20.360Z,18.84
2023-07-15T05:10:02.063Z,19.02
2023-07-15T05:10:45.541Z,19.19
2023-07-15T05:11:27.924Z,19.42
2023-07-15T05:12:11.460Z,19.62
2023-07-15T05:12:53.148Z,19.81
2023-07-15T05:13:34.864Z,19.95
2023-07-15T05:14:16.524Z,19.99
2023-07-15T05:14:59.240Z,20.05
2023-07-15T05:15:41.012Z,20.30
2023-07-15T05:16:22.860Z,20.38
2023-07-15T05:17:07.875Z,20.43
2023-07-15T05:17:49.626Z,20.40
2023-07-15T05:18:31.524Z,20.44
2023-07-15T05:19:13.245Z,20.64
2023-07-15T05:19:55.059Z,20.71
2023-07-15T05:20:38.486Z,20.81
2023-07-15T05:21:20.249Z,20.88
2023-07-15T05:22:02.545Z,20.89
2023-07-15T05:22:44.189Z,21.02
2023-07-15T05:23:25.861Z,21.10
2023-07-15T05:24:07.938Z,21.20
2023-07-15T05:24:50.585Z,21.16
2023-07-15T05:25:33.376Z,21.35
2023-07-15T05:26:15.388Z,21.36
2023-07-15T05:26:57.140Z,21.49
2023-07-15T05:27:38.874Z,21.45
2023-07-15T05:28:20.578Z,21.68
2023-07-15T05:29:02.306Z,21.76
2023-07-15T05:29:46.070Z,21.84
2023-07-15T05:30:28.196Z,21.79
2023-07-15T05:31:09.954Z,22.03
2023-07-15T05:31:51.841Z,22.14
2023-07-15T05:32:33.606Z,22.24
2023-07-15T05:33:15.292Z,22.32
2023-07-15T05:33:57.046Z,22.40
2023-07-15T05:34:38.703Z,22.45
2023-07-15T05:35:20.409Z,22.41
2023-07-15T05:36:03.314Z,22.49
2023-07-15T05:36:45.033Z,22.68
2023-07-15T05:37:26.713Z,22.71
2023-07-15T05:38:08.388Z,22.78
2023-07-15T05:38:50.145Z,22.73
2023-07-15T05:39:31.906Z,22.84
2023-07-15T05:40:13.881Z,22.79
2023-07-15T05:40:56.703Z,22.82
2023-07-15T05:41:38.407Z,22.91
2023-07-15T05:42:21.153Z,23.02
2023-07-15T05:43:02.841Z,22.99
2023-07-15T05:43:44.642Z,22.82
2023-07-15T05:44:26.296Z,22.99
2023-07-15T05:45:08.676Z,23.01
2023-07-15T05:45:50.475Z,22.97
2023-07-15T05:46:32.248Z,23.06
2023-07-15T05:47:14.248Z,23.03
2023-07-15T05:47:56.049Z,23.07
2023-07-15T05:48:38.088Z,22.93
2023-07-15T05:49:19.758Z,22.95
2023-07-15T05:50:05.662Z,23.06
2023-07-15T05:50:47.409Z,23.04
2023-07-15T05:51:29.067Z,23.06
2023-07-15T05:52:10.798Z,22.95
2023-07-15T05:52:54.303Z,22.90
2023-07-15T05:53:36.146Z,23.01
2023-07-15T05:54:17.824Z,22.92
2023-07-15T05:54:59.588Z,22.95
2023-07-15T05:55:41.299Z,22.98
2023-07-15T05:56:23.126Z,22.97
2023-07-15T05:57:05.174Z,22.96
2023-07-15T05:57:46.980Z,22.99
2023-07-15T05:58:28.758Z,22.85
2023-07-15T05:59:10.556Z,23.00
2023-07-15T05:59:52.789Z,23.14
2023-07-15T06:00:34.538Z,23.09
2023-07-15T06:01:16.603Z,23.07
2023-07-15T06:01:58.559Z,23.03
2023-07-15T06:02:40.354Z,23.17
2023-07-15T06:03:22.425Z,23.01
2023-07-15T06:04:07.322Z,23.08
2023-07-15T06:04:49.256Z,23.04
2023-07-15T06:05:31.453Z,22.92
2023-07-15T06:06:14.363Z,22.87
2023-07-15T06:06:56.247Z,23.00
2023-07-15T06:07:38.096Z,22.98
2023-07-15T06:08:19.940Z,22.69
2023-07-15T06:09:01.821Z,22.87
2023-07-15T06:09:43.482Z,22.94
2023-07-15T06:10:25.241Z,22.87
2023-07-15T06:11:06.926Z,22.97
2023-07-15T06:11:48.693Z,22.98
2023-07-15T06:12:31.039Z,22.97
2023-07-15T06:13:12.821Z,22.93
2023-07-15T06:13:54.499Z,22.78
2023-07-15T06:14:36.321Z,23.00
2023-07-15T06:15:18.291Z,22.89
2023-07-15T06:15:59.941Z,23.03
2023-07-15T06:16:41.941Z,23.04
2023-07-15T06:17:23.977Z,23.06
2023-07-15T06:18:06.073Z,23.08
2023-07-15T06:18:47.775Z,23.05
2023-07-15T06:19:29.658Z,23.18
2023-07-15T06:20:12.355Z,23.24
2023-07-15T06:20:54.289Z,23.24
2023-07-15T06:21:37.564Z,23.35
2023-07-15T06:22:19.352Z,23.31
2023-07-15T06:23:01.200Z,23.46
2023-07-15T06:23:42.918Z,23.37
2023-07-15T06:24:24.607Z,23.32
2023-07-15T06:25:06.915Z,23.50
2023-07-15T06:25:48.653Z,23.66
2023-07-15T06:26:30.616Z,23.77
2023-07-15T06:27:12.250Z,23.83
2023-07-15T06:27:55.075Z,23.89
2023-07-15T06:28:36.934Z,23.90
2023-07-15T06:29:18.823Z,23.90
2023-07-15T06:30:00.832Z,23.99
2023-07-15T06:30:43.123Z,24.08
2023-07-15T06:31:25.112Z,24.09
2023-07-15T06:32:07.142Z,24.11
2023-07-15T06:32:48.879Z,24.19
2023-07-15T06:33:31.224Z,24.31
2023-07-15T06:34:12.877Z,24.40
2023-07-15T06:34:54.544Z,24.45
2023-07-15T06:35:36.340Z,24.52
2023-07-15T06:36:18.297Z,24.60
2023-07-15T06:37:00.445Z,24.65
2023-07-15T06:37:42.147Z,24.80
2023-07-15T06:38:23.829Z,24.64
2023-07-15T06:39:05.549Z,24.80
2023-07-15T06:39:47.553Z,24.97
2023-07-15T06:40:29.402Z,24.94
2023-07-15T06:41:11.212Z,24.93
2023-07-15T06:41:53.117Z,24.89
2023-07-15T06:42:35.163Z,24.93
2023-07-15T06:43:16.888Z,25.08
2023-07-15T06:43:58.607Z,25.11
2023-07-15T06:44:43.151Z,25.06
2023-07-15T06:45:33.963Z,25.11
2023-07-15T06:46:15.807Z,25.09
2023-07-15T06:46:57.968Z,24.92
2023-07-15T06:47:40.024Z,25.04
2023-07-15T06:48:21.851Z,25.21
2023-07-15T06:49:03.725Z,25.36
2023-07-15T06:49:45.477Z,25.42
2023-07-15T06:50:27.434Z,25.48
2023-07-15T06:51:09.258Z,25.52
2023-07-15T06:51:51.076Z,25.73
2023-07-15T06:52:32.988Z,25.83
2023-07-15T06:53:15.526Z,25.81
2023-07-15T06:53:57.217Z,25.91
2023-07-15T06:54:39.372Z,25.92
2023-07-15T06:55:22.155Z,25.94
2023-07-15T06:56:19.057Z,26.12
2023-07-15T06:57:01.527Z,26.36
2023-07-15T06:57:43.263Z,26.36
2023-07-15T06:58:25.007Z,26.53
2023-07-15T06:59:06.871Z,26.76
2023-07-15T06:59:48.986Z,26.84
2023-07-15T07:00:31.152Z,26.92
2023-07-15T07:01:13.225Z,27.00
2023-07-15T07:01:55.370Z,26.94
2023-07-15T07:02:37.426Z,26.94
2023-07-15T07:03:19.206Z,27.07
2023-07-15T07:04:01.080Z,26.83
2023-07-15T07:04:42.778Z,27.22
2023-07-15T07:05:24.677Z,27.37
2023-07-15T07:06:06.715Z,27.42
2023-07-15T07:06:48.682Z,27.49
2023-07-15T07:07:30.703Z,27.59
2023-07-15T07:08:12.441Z,27.69
2023-07-15T07:08:55.671Z,27.92
2023-07-15T07:09:37.358Z,28.03
2023-07-15T07:10:19.135Z,28.08
2023-07-15T07:11:00.845Z,28.10
2023-07-15T07:12:24.350Z,28.04
2023-07-15T07:13:06.068Z,27.98
2023-07-15T07:13:47.773Z,28.08
2023-07-15T07:14:31.510Z,28.02
2023-07-15T07:15:15.459Z,28.09
2023-07-15T07:15:59.099Z,28.14
2023-07-15T07:16:40.852Z,28.12
2023-07-15T07:17:22.787Z,27.97
2023-07-15T07:18:04.724Z,28.05
2023-07-15T07:18:46.713Z,28.30
2023-07-15T07:19:28.443Z,28.47
2023-07-15T07:20:10.731Z,28.53
2023-07-15T07:20:59.359Z,28.64
2023-07-15T07:21:41.718Z,28.71
2023-07-15T07:22:23.493Z,28.74
2023-07-15T07:23:05.389Z,28.62
2023-07-15T07:23:47.191Z,28.79
2023-07-15T07:24:28.877Z,28.69
2023-07-15T07:25:10.836Z,28.92
2023-07-15T07:25:53.872Z,28.84
2023-07-15T07:26:35.536Z,28.84
2023-07-15T07:27:17.203Z,29.01
2023-07-15T07:27:58.942Z,28.97
2023-07-15T07:28:45.348Z,28.98
2023-07-15T07:29:27.249Z,28.93
2023-07-15T07:30:09.339Z,29.11
2023-07-15T07:30:51.790Z,29.09
2023-07-15T07:31:33.552Z,29.05
2023-07-15T07:32:15.213Z,28.90
2023-07-15T07:32:56.929Z,29.04
2023-07-15T07:33:39.791Z,29.07
2023-07-15T07:34:21.636Z,29.09
2023-07-15T07:35:03.404Z,28.94
2023-07-15T07:35:48.211Z,29.04
2023-07-15T07:36:30.116Z,29.07
2023-07-15T07:37:11.810Z,29.06
2023-07-15T07:37:55.826Z,29.07
2023-07-15T07:38:37.692Z,29.17
2023-07-15T07:39:19.419Z,29.13
2023-07-15T07:40:01.100Z,29.18
2023-07-15T07:40:47.587Z,29.06
2023-07-15T07:41:29.308Z,29.14
2023-07-15T07:42:11.055Z,29.13
2023-07-15T07:42:52.843Z,29.13
2023-07-15T07:43:35.463Z,29.16
2023-07-15T07:44:17.335Z,29.10
2023-07-15T07:44:59.133Z,29.29
2023-07-15T07:45:40.812Z,29.31
2023-07-15T07:46:22.535Z,29.33
2023-07-15T07:47:04.482Z,29.29
2023-07-15T07:47:46.294Z,29.10
2023-07-15T07:48:29.014Z,29.16
2023-07-15T07:49:10.753Z,29.02
2023-07-15T07:49:52.446Z,28.86
2023-07-15T07:50:35.377Z,28.84
2023-07-15T07:51:17.336Z,28.91
2023-07-15T07:51:59.423Z,28.95
2023-07-15T07:52:41.118Z,28.89
2023-07-15T07:53:23.945Z,28.86
2023-07-15T07:54:05.807Z,28.87
2023-07-15T07:54:48.119Z,28.91
2023-07-15T07:55:30.068Z,28.72
2023-07-15T07:56:12.594Z,29.01
2023-07-15T07:56:54.592Z,28.93
2023-07-15T07:57:36.356Z,29.01
2023-07-15T07:58:18.681Z,29.06
2023-07-15T07:59:02.107Z,29.05
2023-07-15T07:59:43.785Z,28.94
2023-07-15T08:00:25.537Z,28.95
2023-07-15T08:01:07.425Z,29.09
2023-07-15T08:01:49.426Z,28.99
2023-07-15T08:02:31.204Z,29.17
2023-07-15T08:03:13.109Z,29.22
2023-07-15T08:03:56.367Z,29.28
2023-07-15T08:04:38.287Z,29.33
2023-07-15T08:05:20.039Z,29.27
2023-07-15T08:06:01.833Z,29.31
2023-07-15T08:06:43.615Z,29.34
2023-07-15T08:07:25.288Z,29.36
2023-07-15T08:08:07.052Z,29.35
2023-07-15T08:08:48.931Z,29.29
2023-07-15T08:09:30.693Z,29.30
2023-07-15T08:10:12.503Z,29.33
2023-07-15T08:10:54.491Z,29.21
2023-07-15T08:11:36.342Z,29.34
2023-07-15T08:12:19.072Z,29.37
2023-07-15T08:13:03.958Z,29.39
2023-07-15T08:13:45.795Z,29.30
2023-07-15T08:14:27.507Z,29.24
2023-07-15T08:15:09.775Z,29.44
2023-07-15T08:15:51.541Z,29.47
2023-07-15T08:16:35.758Z,29.51
2023-07-15T08:17:18.791Z,29.54
2023-07-15T08:18:00.571Z,29.50
2023-07-15T08:18:42.344Z,29.61
2023-07-15T08:19:25.033Z,29.64
2023-07-15T08:20:09.394Z,29.67
2023-07-15T08:20:52.200Z,29.67
2023-07-15T08:21:34.502Z,29.59
2023-07-15T08:22:16.157Z,29.72
2023-07-15T08:22:59.257Z,29.74
2023-07-15T08:23:41.221Z,29.62
2023-07-15T08:24:23.182Z,29.80
2023-07-15T08:25:05.300Z,29.98
2023-07-15T08:25:47.636Z,30.25
2023-07-15T08:26:29.867Z,30.41
2023-07-15T08:27:11.601Z,30.48
2023-07-15T08:27:54.702Z,30.59
2023-07-15T08:28:36.473Z,30.75
2023-07-15T08:29:18.199Z,30.54
2023-07-15T08:30:00.109Z,30.65
2023-07-15T08:30:41.882Z,30.69
2023-07-15T08:31:23.628Z,30.76
2023-07-15T08:32:05.915Z,30.74
2023-07-15T08:32:47.710Z,30.83
2023-07-15T08:33:29.420Z,30.82
2023-07-15T08:34:11.116Z,30.65
2023-07-15T08:35:02.959Z,30.77
2023-07-15T08:35:46.802Z,30.89
2023-07-15T08:36:28.540Z,31.02
2023-07-15T08:37:10.266Z,31.28
2023-07-15T08:37:54.122Z,31.47
2023-07-15T08:38:36.053Z,31.72
2023-07-15T08:39:17.722Z,31.79
2023-07-15T08:39:59.598Z,31.96
2023-07-15T08:40:42.925Z,31.87
2023-07-15T08:41:25.475Z,32.18
2023-07-15T08:42:07.677Z,32.19
2023-07-15T08:42:49.335Z,32.23
2023-07-15T08:43:31.835Z,32.37
2023-07-15T08:44:15.695Z,32.30
2023-07-15T08:44:57.458Z,32.44
2023-07-15T08:45:39.204Z,32.48
2023-07-15T08:46:28.072Z,32.71
2023-07-15T08:47:10.749Z,32.84
2023-07-15T08:47:54.670Z,32.93
2023-07-15T08:48:37.894Z,32.98
2023-07-15T08:49:22.581Z,32.84
2023-07-15T08:50:04.960Z,32.75
2023-07-15T08:50:48.121Z,32.71
2023-07-15T08:51:35.673Z,32.50
2023-07-15T08:52:22.453Z,32.53
2023-07-15T08:53:04.715Z,32.24
2023-07-15T08:53:46.998Z,32.48
2023-07-15T08:54:29.526Z,32.50
2023-07-15T08:55:11.652Z,32.61
2023-07-15T08:55:55.643Z,32.76
2023-07-15T08:56:39.262Z,32.96
2023-07-15T08:57:23.240Z,33.10
2023-07-15T08:58:04.950Z,33.16
2023-07-15T08:58:47.901Z,33.13
2023-07-15T08:59:29.803Z,33.13
2023-07-15T09:00:13.198Z,33.23
2023-07-15T09:00:55.413Z,33.22
2023-07-15T09:01:37.267Z,33.49
2023-07-15T09:02:19.050Z,33.60
2023-07-15T09:03:00.853Z,33.64
2023-07-15T09:03:42.667Z,33.69
2023-07-15T09:04:24.594Z,33.98
2023-07-15T09:05:10.424Z,34.05
2023-07-15T09:05:52.467Z,33.97
2023-07-15T09:06:34.501Z,34.05
2023-07-15T09:07:16.218Z,34.17
2023-07-15T09:07:59.177Z,34.20
2023-07-15T09:08:43.573Z,34.42
2023-07-15T09:09:36.293Z,34.60
2023-07-15T09:10:18.387Z,34.90
2023-07-15T09:11:00.613Z,34.96